sensor_id;sensor_type;location;lat;lon;timestamp;P1;durP1;ratioP1;P2;durP2;ratioP2
62707;SDS011;48769;51.624;5.886;2022-08-24T00:01:11;21.38;;;19.10;;
62707;SDS011;48769;51.624;5.886;2022-08-24T00:03:39;20.70;;;17.38;;
62707;SDS011;48769;51.624;5.886;2022-08-24T00:06:06;23.70;;;17.73;;
62707;SDS011;48769;51.624;5.886;2022-08-24T00:08:34;22.52;;;16.73;;
62707;SDS011;48769;51.624;5.886;2022-08-24T00:11:00;24.55;;;18.73;;
62707;SDS011;48769;51.624;5.886;2022-08-24T00:13:25;22.52;;;17.55;;
62707;SDS011;48769;51.624;5.886;2022-08-24T00:15:52;22.85;;;18.15;;
62707;SDS011;48769;51.624;5.886;2022-08-24T00:18:20;19.77;;;16.95;;
62707;SDS011;48769;51.624;5.886;2022-08-24T00:20:46;24.60;;;18.50;;
62707;SDS011;48769;51.624;5.886;2022-08-24T00:23:12;24.48;;;18.33;;
62707;SDS011;48769;51.624;5.886;2022-08-24T00:25:38;21.95;;;17.20;;
62707;SDS011;48769;51.624;5.886;2022-08-24T00:28:04;19.25;;;17.25;;
62707;SDS011;48769;51.624;5.886;2022-08-24T00:30:29;22.85;;;18.80;;
62707;SDS011;48769;51.624;5.886;2022-08-24T00:32:55;20.45;;;18.33;;
62707;SDS011;48769;51.624;5.886;2022-08-24T00:35:21;20.48;;;18.38;;
62707;SDS011;48769;51.624;5.886;2022-08-24T00:37:47;21.48;;;18.42;;
62707;SDS011;48769;51.624;5.886;2022-08-24T00:40:15;23.35;;;19.00;;
62707;SDS011;48769;51.624;5.886;2022-08-24T00:42:44;21.27;;;18.38;;
62707;SDS011;48769;51.624;5.886;2022-08-24T00:45:11;21.05;;;18.77;;
62707;SDS011;48769;51.624;5.886;2022-08-24T00:47:42;23.02;;;20.65;;
62707;SDS011;48769;51.624;5.886;2022-08-24T00:50:13;26.58;;;20.52;;
62707;SDS011;48769;51.624;5.886;2022-08-24T00:52:48;24.20;;;21.65;;
62707;SDS011;48769;51.624;5.886;2022-08-24T00:55:19;32.58;;;20.35;;
62707;SDS011;48769;51.624;5.886;2022-08-24T00:57:51;23.55;;;20.98;;
62707;SDS011;48769;51.624;5.886;2022-08-24T01:00:27;26.60;;;21.77;;
62707;SDS011;48769;51.624;5.886;2022-08-24T01:02:57;25.95;;;21.80;;
62707;SDS011;48769;51.624;5.886;2022-08-24T01:05:28;25.83;;;22.48;;
62707;SDS011;48769;51.624;5.886;2022-08-24T01:07:55;26.17;;;21.02;;
62707;SDS011;48769;51.624;5.886;2022-08-24T01:10:22;21.17;;;18.75;;
62707;SDS011;48769;51.624;5.886;2022-08-24T01:12:50;22.35;;;19.63;;
62707;SDS011;48769;51.624;5.886;2022-08-24T01:15:19;24.73;;;21.80;;
62707;SDS011;48769;51.624;5.886;2022-08-24T01:17:46;24.90;;;20.67;;
62707;SDS011;48769;51.624;5.886;2022-08-24T01:20:31;24.30;;;21.80;;
62707;SDS011;48769;51.624;5.886;2022-08-24T01:25:25;23.85;;;21.00;;
62707;SDS011;48769;51.624;5.886;2022-08-24T01:27:53;28.13;;;23.45;;
62707;SDS011;48769;51.624;5.886;2022-08-24T01:30:21;28.45;;;23.80;;
62707;SDS011;48769;51.624;5.886;2022-08-24T01:32:57;26.30;;;23.63;;
62707;SDS011;48769;51.624;5.886;2022-08-24T01:35:26;26.42;;;23.65;;
62707;SDS011;48769;51.624;5.886;2022-08-24T01:37:52;27.13;;;23.98;;
62707;SDS011;48769;51.624;5.886;2022-08-24T01:40:20;27.40;;;24.70;;
62707;SDS011;48769;51.624;5.886;2022-08-24T01:42:50;26.85;;;23.77;;
62707;SDS011;48769;51.624;5.886;2022-08-24T01:45:17;30.08;;;26.85;;
62707;SDS011;48769;51.624;5.886;2022-08-24T01:47:43;30.80;;;27.58;;
62707;SDS011;48769;51.624;5.886;2022-08-24T01:50:09;33.85;;;30.15;;
62707;SDS011;48769;51.624;5.886;2022-08-24T01:52:36;36.47;;;30.45;;
62707;SDS011;48769;51.624;5.886;2022-08-24T01:55:12;42.10;;;31.70;;
62707;SDS011;48769;51.624;5.886;2022-08-24T01:57:40;37.05;;;31.40;;
62707;SDS011;48769;51.624;5.886;2022-08-24T02:00:07;41.08;;;31.15;;
62707;SDS011;48769;51.624;5.886;2022-08-24T02:02:34;38.45;;;34.47;;
62707;SDS011;48769;51.624;5.886;2022-08-24T02:05:00;40.78;;;34.78;;
62707;SDS011;48769;51.624;5.886;2022-08-24T02:07:25;39.35;;;35.35;;
62707;SDS011;48769;51.624;5.886;2022-08-24T02:09:51;35.22;;;31.70;;
62707;SDS011;48769;51.624;5.886;2022-08-24T02:12:17;35.13;;;30.23;;
62707;SDS011;48769;51.624;5.886;2022-08-24T02:14:44;36.25;;;31.60;;
62707;SDS011;48769;51.624;5.886;2022-08-24T02:17:11;32.28;;;28.88;;
62707;SDS011;48769;51.624;5.886;2022-08-24T02:19:37;33.10;;;29.05;;
62707;SDS011;48769;51.624;5.886;2022-08-24T02:22:03;28.17;;;25.35;;
62707;SDS011;48769;51.624;5.886;2022-08-24T02:24:30;31.85;;;28.02;;
62707;SDS011;48769;51.624;5.886;2022-08-24T02:26:55;30.83;;;27.13;;
62707;SDS011;48769;51.624;5.886;2022-08-24T02:29:21;28.67;;;25.70;;
62707;SDS011;48769;51.624;5.886;2022-08-24T02:31:47;28.45;;;25.60;;
62707;SDS011;48769;51.624;5.886;2022-08-24T02:34:12;28.23;;;25.17;;
62707;SDS011;48769;51.624;5.886;2022-08-24T02:36:38;28.58;;;25.70;;
62707;SDS011;48769;51.624;5.886;2022-08-24T02:39:04;29.80;;;26.60;;
62707;SDS011;48769;51.624;5.886;2022-08-24T02:41:30;33.25;;;29.63;;
62707;SDS011;48769;51.624;5.886;2022-08-24T02:43:56;30.75;;;27.73;;
62707;SDS011;48769;51.624;5.886;2022-08-24T02:46:22;29.85;;;26.50;;
62707;SDS011;48769;51.624;5.886;2022-08-24T02:48:50;32.00;;;28.55;;
62707;SDS011;48769;51.624;5.886;2022-08-24T02:51:19;36.90;;;32.15;;
62707;SDS011;48769;51.624;5.886;2022-08-24T02:53:46;33.53;;;29.88;;
62707;SDS011;48769;51.624;5.886;2022-08-24T02:56:12;34.33;;;30.67;;
62707;SDS011;48769;51.624;5.886;2022-08-24T02:58:37;33.88;;;30.33;;
62707;SDS011;48769;51.624;5.886;2022-08-24T03:01:02;32.88;;;29.67;;
62707;SDS011;48769;51.624;5.886;2022-08-24T03:03:28;34.47;;;31.10;;
62707;SDS011;48769;51.624;5.886;2022-08-24T03:05:53;36.67;;;32.92;;
62707;SDS011;48769;51.624;5.886;2022-08-24T03:08:18;36.58;;;32.92;;
62707;SDS011;48769;51.624;5.886;2022-08-24T03:10:44;35.97;;;32.10;;
62707;SDS011;48769;51.624;5.886;2022-08-24T03:13:09;34.97;;;30.25;;
62707;SDS011;48769;51.624;5.886;2022-08-24T03:15:34;35.78;;;32.25;;
62707;SDS011;48769;51.624;5.886;2022-08-24T03:18:00;39.22;;;32.63;;
62707;SDS011;48769;51.624;5.886;2022-08-24T03:20:25;37.20;;;33.17;;
62707;SDS011;48769;51.624;5.886;2022-08-24T03:22:51;35.33;;;31.85;;
62707;SDS011;48769;51.624;5.886;2022-08-24T03:25:17;32.72;;;29.33;;
62707;SDS011;48769;51.624;5.886;2022-08-24T03:27:44;33.08;;;29.77;;
62707;SDS011;48769;51.624;5.886;2022-08-24T03:30:11;35.53;;;29.65;;
62707;SDS011;48769;51.624;5.886;2022-08-24T03:32:39;35.60;;;31.77;;
62707;SDS011;48769;51.624;5.886;2022-08-24T03:35:05;35.90;;;31.80;;
62707;SDS011;48769;51.624;5.886;2022-08-24T03:37:31;36.00;;;31.70;;
62707;SDS011;48769;51.624;5.886;2022-08-24T03:39:56;36.20;;;32.45;;
62707;SDS011;48769;51.624;5.886;2022-08-24T03:42:22;38.00;;;33.92;;
62707;SDS011;48769;51.624;5.886;2022-08-24T03:44:48;38.78;;;34.70;;
62707;SDS011;48769;51.624;5.886;2022-08-24T03:47:13;35.38;;;31.77;;
62707;SDS011;48769;51.624;5.886;2022-08-24T03:49:38;35.03;;;31.42;;
62707;SDS011;48769;51.624;5.886;2022-08-24T03:52:04;35.75;;;31.92;;
62707;SDS011;48769;51.624;5.886;2022-08-24T03:54:30;36.60;;;32.45;;
62707;SDS011;48769;51.624;5.886;2022-08-24T03:56:56;39.65;;;35.25;;
62707;SDS011;48769;51.624;5.886;2022-08-24T03:59:22;34.38;;;30.30;;
62707;SDS011;48769;51.624;5.886;2022-08-24T04:01:48;40.00;;;35.83;;
62707;SDS011;48769;51.624;5.886;2022-08-24T04:04:14;39.13;;;34.95;;
62707;SDS011;48769;51.624;5.886;2022-08-24T04:06:40;38.30;;;33.50;;
62707;SDS011;48769;51.624;5.886;2022-08-24T04:09:08;40.53;;;33.17;;
62707;SDS011;48769;51.624;5.886;2022-08-24T04:11:35;36.97;;;33.15;;
62707;SDS011;48769;51.624;5.886;2022-08-24T04:14:01;37.10;;;33.10;;
62707;SDS011;48769;51.624;5.886;2022-08-24T04:16:27;35.97;;;32.20;;
62707;SDS011;48769;51.624;5.886;2022-08-24T04:18:54;37.95;;;33.92;;
62707;SDS011;48769;51.624;5.886;2022-08-24T04:21:24;36.22;;;32.72;;
62707;SDS011;48769;51.624;5.886;2022-08-24T04:23:52;38.63;;;34.58;;
62707;SDS011;48769;51.624;5.886;2022-08-24T04:26:19;39.20;;;35.15;;
62707;SDS011;48769;51.624;5.886;2022-08-24T04:28:47;39.00;;;34.80;;
62707;SDS011;48769;51.624;5.886;2022-08-24T04:31:13;36.67;;;32.72;;
62707;SDS011;48769;51.624;5.886;2022-08-24T04:33:39;35.75;;;32.05;;
62707;SDS011;48769;51.624;5.886;2022-08-24T04:36:08;38.58;;;34.42;;
62707;SDS011;48769;51.624;5.886;2022-08-24T04:38:35;37.70;;;32.08;;
62707;SDS011;48769;51.624;5.886;2022-08-24T04:41:05;37.88;;;33.78;;
62707;SDS011;48769;51.624;5.886;2022-08-24T04:43:33;38.70;;;34.63;;
62707;SDS011;48769;51.624;5.886;2022-08-24T04:45:59;38.53;;;34.20;;
62707;SDS011;48769;51.624;5.886;2022-08-24T04:48:29;38.60;;;34.42;;
62707;SDS011;48769;51.624;5.886;2022-08-24T04:50:59;38.08;;;34.03;;
62707;SDS011;48769;51.624;5.886;2022-08-24T04:53:29;35.63;;;31.98;;
62707;SDS011;48769;51.624;5.886;2022-08-24T04:55:55;37.22;;;33.28;;
62707;SDS011;48769;51.624;5.886;2022-08-24T04:58:20;37.00;;;32.70;;
62707;SDS011;48769;51.624;5.886;2022-08-24T05:00:46;44.45;;;35.40;;
62707;SDS011;48769;51.624;5.886;2022-08-24T05:03:11;38.35;;;34.25;;
62707;SDS011;48769;51.624;5.886;2022-08-24T05:05:40;36.00;;;32.22;;
62707;SDS011;48769;51.624;5.886;2022-08-24T05:08:08;36.40;;;32.53;;
62707;SDS011;48769;51.624;5.886;2022-08-24T05:10:36;42.03;;;36.17;;
62707;SDS011;48769;51.624;5.886;2022-08-24T05:13:03;34.92;;;30.95;;
62707;SDS011;48769;51.624;5.886;2022-08-24T05:15:28;35.53;;;31.92;;
62707;SDS011;48769;51.624;5.886;2022-08-24T05:17:55;34.63;;;30.88;;
62707;SDS011;48769;51.624;5.886;2022-08-24T05:20:20;38.78;;;34.65;;
62707;SDS011;48769;51.624;5.886;2022-08-24T05:22:45;42.25;;;36.78;;
62707;SDS011;48769;51.624;5.886;2022-08-24T05:25:11;41.22;;;37.03;;
62707;SDS011;48769;51.624;5.886;2022-08-24T05:27:36;42.13;;;37.90;;
62707;SDS011;48769;51.624;5.886;2022-08-24T05:30:02;39.60;;;35.40;;
62707;SDS011;48769;51.624;5.886;2022-08-24T05:32:28;47.47;;;42.25;;
62707;SDS011;48769;51.624;5.886;2022-08-24T05:34:53;55.22;;;45.60;;
62707;SDS011;48769;51.624;5.886;2022-08-24T05:37:18;44.60;;;40.20;;
62707;SDS011;48769;51.624;5.886;2022-08-24T05:39:44;41.25;;;36.80;;
62707;SDS011;48769;51.624;5.886;2022-08-24T05:42:09;46.65;;;41.83;;
62707;SDS011;48769;51.624;5.886;2022-08-24T05:44:34;45.67;;;40.72;;
62707;SDS011;48769;51.624;5.886;2022-08-24T05:47:00;46.33;;;41.40;;
62707;SDS011;48769;51.624;5.886;2022-08-24T05:49:26;53.83;;;48.03;;
62707;SDS011;48769;51.624;5.886;2022-08-24T05:51:52;58.20;;;51.20;;
62707;SDS011;48769;51.624;5.886;2022-08-24T05:54:18;50.08;;;44.63;;
62707;SDS011;48769;51.624;5.886;2022-08-24T05:56:43;67.55;;;46.83;;
62707;SDS011;48769;51.624;5.886;2022-08-24T05:59:09;51.33;;;45.80;;
62707;SDS011;48769;51.624;5.886;2022-08-24T06:01:35;51.45;;;46.13;;
62707;SDS011;48769;51.624;5.886;2022-08-24T06:04:02;53.65;;;46.25;;
62707;SDS011;48769;51.624;5.886;2022-08-24T06:06:28;51.22;;;45.88;;
62707;SDS011;48769;51.624;5.886;2022-08-24T06:08:54;58.00;;;49.33;;
62707;SDS011;48769;51.624;5.886;2022-08-24T06:11:22;54.22;;;48.83;;
62707;SDS011;48769;51.624;5.886;2022-08-24T06:13:54;63.67;;;55.63;;
62707;SDS011;48769;51.624;5.886;2022-08-24T06:16:21;66.13;;;58.13;;
62707;SDS011;48769;51.624;5.886;2022-08-24T06:18:48;62.53;;;56.05;;
62707;SDS011;48769;51.624;5.886;2022-08-24T06:21:16;62.10;;;55.42;;
62707;SDS011;48769;51.624;5.886;2022-08-24T06:23:45;61.75;;;55.00;;
62707;SDS011;48769;51.624;5.886;2022-08-24T06:26:11;61.45;;;55.08;;
62707;SDS011;48769;51.624;5.886;2022-08-24T06:28:56;62.35;;;55.63;;
62707;SDS011;48769;51.624;5.886;2022-08-24T06:31:22;67.22;;;56.22;;
62707;SDS011;48769;51.624;5.886;2022-08-24T06:33:48;59.95;;;53.38;;
62707;SDS011;48769;51.624;5.886;2022-08-24T06:36:15;63.65;;;54.28;;
62707;SDS011;48769;51.624;5.886;2022-08-24T06:38:40;64.95;;;57.38;;
62707;SDS011;48769;51.624;5.886;2022-08-24T06:41:07;66.95;;;58.63;;
62707;SDS011;48769;51.624;5.886;2022-08-24T06:43:33;69.13;;;58.75;;
62707;SDS011;48769;51.624;5.886;2022-08-24T06:45:59;62.78;;;55.45;;
62707;SDS011;48769;51.624;5.886;2022-08-24T06:48:25;70.60;;;61.67;;
62707;SDS011;48769;51.624;5.886;2022-08-24T06:50:50;66.70;;;59.40;;
62707;SDS011;48769;51.624;5.886;2022-08-24T06:53:16;65.53;;;57.47;;
62707;SDS011;48769;51.624;5.886;2022-08-24T06:55:47;63.63;;;56.63;;
62707;SDS011;48769;51.624;5.886;2022-08-24T06:58:14;65.60;;;58.03;;
62707;SDS011;48769;51.624;5.886;2022-08-24T07:00:40;60.95;;;54.47;;
62707;SDS011;48769;51.624;5.886;2022-08-24T07:03:05;61.40;;;52.78;;
62707;SDS011;48769;51.624;5.886;2022-08-24T07:05:31;61.10;;;54.60;;
62707;SDS011;48769;51.624;5.886;2022-08-24T07:07:56;57.50;;;51.83;;
62707;SDS011;48769;51.624;5.886;2022-08-24T07:10:23;56.55;;;50.60;;
62707;SDS011;48769;51.624;5.886;2022-08-24T07:12:48;57.15;;;50.63;;
62707;SDS011;48769;51.624;5.886;2022-08-24T07:15:14;58.15;;;48.55;;
62707;SDS011;48769;51.624;5.886;2022-08-24T07:17:39;51.08;;;45.92;;
62707;SDS011;48769;51.624;5.886;2022-08-24T07:20:05;52.88;;;47.03;;
62707;SDS011;48769;51.624;5.886;2022-08-24T07:22:32;52.60;;;47.13;;
62707;SDS011;48769;51.624;5.886;2022-08-24T07:24:58;52.17;;;46.58;;
62707;SDS011;48769;51.624;5.886;2022-08-24T07:27:23;47.75;;;42.90;;
62707;SDS011;48769;51.624;5.886;2022-08-24T07:29:52;50.90;;;45.47;;
62707;SDS011;48769;51.624;5.886;2022-08-24T07:32:18;45.92;;;40.95;;
62707;SDS011;48769;51.624;5.886;2022-08-24T07:34:43;40.75;;;36.22;;
62707;SDS011;48769;51.624;5.886;2022-08-24T07:37:08;39.83;;;35.60;;
62707;SDS011;48769;51.624;5.886;2022-08-24T07:39:34;37.78;;;33.85;;
62707;SDS011;48769;51.624;5.886;2022-08-24T07:41:59;40.05;;;35.63;;
62707;SDS011;48769;51.624;5.886;2022-08-24T07:44:28;44.42;;;34.78;;
62707;SDS011;48769;51.624;5.886;2022-08-24T07:46:55;39.65;;;35.80;;
62707;SDS011;48769;51.624;5.886;2022-08-24T07:49:21;41.38;;;34.55;;
62707;SDS011;48769;51.624;5.886;2022-08-24T07:51:46;36.72;;;32.92;;
62707;SDS011;48769;51.624;5.886;2022-08-24T07:54:12;34.13;;;30.50;;
62707;SDS011;48769;51.624;5.886;2022-08-24T07:56:39;33.25;;;29.60;;
62707;SDS011;48769;51.624;5.886;2022-08-24T07:59:05;38.92;;;35.00;;
62707;SDS011;48769;51.624;5.886;2022-08-24T08:01:31;42.80;;;35.45;;
62707;SDS011;48769;51.624;5.886;2022-08-24T08:03:57;42.38;;;37.53;;
62707;SDS011;48769;51.624;5.886;2022-08-24T08:06:22;41.20;;;35.47;;
62707;SDS011;48769;51.624;5.886;2022-08-24T08:08:48;34.97;;;31.20;;
62707;SDS011;48769;51.624;5.886;2022-08-24T08:11:14;30.52;;;27.33;;
62707;SDS011;48769;51.624;5.886;2022-08-24T08:13:40;38.30;;;32.67;;
62707;SDS011;48769;51.624;5.886;2022-08-24T08:16:06;33.35;;;29.50;;
62707;SDS011;48769;51.624;5.886;2022-08-24T08:18:31;30.25;;;27.30;;
62707;SDS011;48769;51.624;5.886;2022-08-24T08:20:57;34.30;;;26.60;;
62707;SDS011;48769;51.624;5.886;2022-08-24T08:23:22;32.97;;;29.40;;
62707;SDS011;48769;51.624;5.886;2022-08-24T08:26:11;39.05;;;33.97;;
62707;SDS011;48769;51.624;5.886;2022-08-24T08:28:39;36.72;;;26.67;;
62707;SDS011;48769;51.624;5.886;2022-08-24T08:31:06;37.53;;;27.17;;
62707;SDS011;48769;51.624;5.886;2022-08-24T08:33:32;42.72;;;28.92;;
62707;SDS011;48769;51.624;5.886;2022-08-24T08:36:12;30.50;;;26.45;;
62707;SDS011;48769;51.624;5.886;2022-08-24T08:38:42;28.08;;;23.27;;
62707;SDS011;48769;51.624;5.886;2022-08-24T08:46:55;34.90;;;22.67;;
62707;SDS011;48769;51.624;5.886;2022-08-24T09:01:09;22.92;;;19.52;;
62707;SDS011;48769;51.624;5.886;2022-08-24T09:17:36;12.73;;;8.43;;
62707;SDS011;48769;51.624;5.886;2022-08-24T09:23:06;12.63;;;8.45;;
62707;SDS011;48769;51.624;5.886;2022-08-24T09:28:34;8.27;;;5.50;;
62707;SDS011;48769;51.624;5.886;2022-08-24T09:36:19;14.82;;;7.95;;
62707;SDS011;48769;51.624;5.886;2022-08-24T09:47:50;5.50;;;3.38;;
62707;SDS011;48769;51.624;5.886;2022-08-24T09:53:27;4.25;;;3.78;;
62707;SDS011;48769;51.624;5.886;2022-08-24T09:56:28;8.52;;;3.83;;
62707;SDS011;48769;51.624;5.886;2022-08-24T10:04:40;5.50;;;3.30;;
62707;SDS011;48769;51.624;5.886;2022-08-24T10:13:02;3.17;;;2.53;;
62707;SDS011;48769;51.624;5.886;2022-08-24T10:18:14;3.90;;;2.50;;
62707;SDS011;48769;51.624;5.886;2022-08-24T10:21:12;3.60;;;1.95;;
62707;SDS011;48769;51.624;5.886;2022-08-24T10:29:24;6.22;;;2.28;;
62707;SDS011;48769;51.624;5.886;2022-08-24T10:36:58;4.80;;;2.70;;
62707;SDS011;48769;51.624;5.886;2022-08-24T10:50:55;4.40;;;2.65;;
62707;SDS011;48769;51.624;5.886;2022-08-24T10:53:31;5.50;;;3.35;;
62707;SDS011;48769;51.624;5.886;2022-08-24T10:56:04;7.88;;;3.03;;
62707;SDS011;48769;51.624;5.886;2022-08-24T10:58:43;3.60;;;2.75;;
62707;SDS011;48769;51.624;5.886;2022-08-24T11:03:47;8.13;;;2.83;;
62707;SDS011;48769;51.624;5.886;2022-08-24T11:06:18;5.45;;;2.72;;
62707;SDS011;48769;51.624;5.886;2022-08-24T11:08:55;6.88;;;3.10;;
62707;SDS011;48769;51.624;5.886;2022-08-24T11:11:30;3.00;;;2.50;;
62707;SDS011;48769;51.624;5.886;2022-08-24T11:16:28;6.13;;;2.88;;
62707;SDS011;48769;51.624;5.886;2022-08-24T11:18:57;4.15;;;2.38;;
62707;SDS011;48769;51.624;5.886;2022-08-24T11:21:35;5.78;;;3.03;;
62707;SDS011;48769;51.624;5.886;2022-08-24T11:26:50;5.20;;;2.67;;
62707;SDS011;48769;51.624;5.886;2022-08-24T11:29:19;6.05;;;2.83;;
62707;SDS011;48769;51.624;5.886;2022-08-24T11:31:47;4.05;;;3.35;;
62707;SDS011;48769;51.624;5.886;2022-08-24T11:34:16;5.38;;;2.72;;
62707;SDS011;48769;51.624;5.886;2022-08-24T11:36:55;4.05;;;2.63;;
62707;SDS011;48769;51.624;5.886;2022-08-24T11:39:34;6.25;;;2.83;;
62707;SDS011;48769;51.624;5.886;2022-08-24T11:42:03;6.13;;;2.65;;
62707;SDS011;48769;51.624;5.886;2022-08-24T11:47:06;9.20;;;2.90;;
62707;SDS011;48769;51.624;5.886;2022-08-24T11:58:42;5.70;;;2.85;;
62707;SDS011;48769;51.624;5.886;2022-08-24T12:16:02;5.50;;;2.38;;
62707;SDS011;48769;51.624;5.886;2022-08-24T12:19:05;2.83;;;2.10;;
62707;SDS011;48769;51.624;5.886;2022-08-24T12:21:37;4.10;;;2.20;;
62707;SDS011;48769;51.624;5.886;2022-08-24T12:26:41;8.95;;;2.20;;
62707;SDS011;48769;51.624;5.886;2022-08-24T12:29:13;3.80;;;2.42;;
62707;SDS011;48769;51.624;5.886;2022-08-24T12:31:50;4.80;;;2.58;;
62707;SDS011;48769;51.624;5.886;2022-08-24T12:34:21;5.22;;;1.98;;
62707;SDS011;48769;51.624;5.886;2022-08-24T12:37:05;5.22;;;2.10;;
62707;SDS011;48769;51.624;5.886;2022-08-24T12:39:38;7.38;;;2.67;;
62707;SDS011;48769;51.624;5.886;2022-08-24T12:42:32;4.65;;;2.15;;
62707;SDS011;48769;51.624;5.886;2022-08-24T12:45:07;5.43;;;2.20;;
62707;SDS011;48769;51.624;5.886;2022-08-24T12:59:22;3.47;;;2.35;;
62707;SDS011;48769;51.624;5.886;2022-08-24T13:02:00;4.40;;;1.95;;
62707;SDS011;48769;51.624;5.886;2022-08-24T13:07:25;4.03;;;1.83;;
62707;SDS011;48769;51.624;5.886;2022-08-24T13:17:45;4.57;;;1.88;;
62707;SDS011;48769;51.624;5.886;2022-08-24T13:25:55;4.72;;;2.03;;
62707;SDS011;48769;51.624;5.886;2022-08-24T13:28:42;3.28;;;1.80;;
62707;SDS011;48769;51.624;5.886;2022-08-24T13:31:23;3.30;;;1.92;;
62707;SDS011;48769;51.624;5.886;2022-08-24T13:44:45;5.80;;;1.83;;
62707;SDS011;48769;51.624;5.886;2022-08-24T13:48:01;5.90;;;1.70;;
62707;SDS011;48769;51.624;5.886;2022-08-24T13:50:27;3.63;;;1.70;;
62707;SDS011;48769;51.624;5.886;2022-08-24T13:53:03;5.95;;;1.75;;
62707;SDS011;48769;51.624;5.886;2022-08-24T13:55:31;7.13;;;1.98;;
62707;SDS011;48769;51.624;5.886;2022-08-24T14:14:15;7.25;;;1.90;;
62707;SDS011;48769;51.624;5.886;2022-08-24T14:25:48;2.95;;;1.67;;
62707;SDS011;48769;51.624;5.886;2022-08-24T14:33:44;5.50;;;1.70;;
62707;SDS011;48769;51.624;5.886;2022-08-24T14:36:14;4.40;;;1.80;;
62707;SDS011;48769;51.624;5.886;2022-08-24T14:38:48;3.63;;;1.75;;
62707;SDS011;48769;51.624;5.886;2022-08-24T15:11:48;8.15;;;1.92;;
62707;SDS011;48769;51.624;5.886;2022-08-24T15:14:24;7.20;;;1.88;;
62707;SDS011;48769;51.624;5.886;2022-08-24T15:17:10;4.55;;;1.70;;
62707;SDS011;48769;51.624;5.886;2022-08-24T15:19:43;3.92;;;1.42;;
62707;SDS011;48769;51.624;5.886;2022-08-24T15:24:56;6.93;;;1.75;;
62707;SDS011;48769;51.624;5.886;2022-08-24T15:27:27;3.85;;;2.08;;
62707;SDS011;48769;51.624;5.886;2022-08-24T15:30:17;6.40;;;2.30;;
62707;SDS011;48769;51.624;5.886;2022-08-24T15:32:47;4.53;;;1.80;;
62707;SDS011;48769;51.624;5.886;2022-08-24T15:35:21;4.88;;;1.73;;
62707;SDS011;48769;51.624;5.886;2022-08-24T15:41:02;3.43;;;2.13;;
62707;SDS011;48769;51.624;5.886;2022-08-24T15:43:56;5.53;;;2.05;;
62707;SDS011;48769;51.624;5.886;2022-08-24T15:46:28;3.33;;;1.90;;
62707;SDS011;48769;51.624;5.886;2022-08-24T15:49:00;2.70;;;1.92;;
62707;SDS011;48769;51.624;5.886;2022-08-24T15:51:34;10.73;;;2.63;;
62707;SDS011;48769;51.624;5.886;2022-08-24T15:54:13;6.70;;;1.83;;
62707;SDS011;48769;51.624;5.886;2022-08-24T15:57:09;7.60;;;1.97;;
62707;SDS011;48769;51.624;5.886;2022-08-24T16:04:51;2.97;;;1.63;;
62707;SDS011;48769;51.624;5.886;2022-08-24T16:07:23;4.80;;;2.25;;
62707;SDS011;48769;51.624;5.886;2022-08-24T16:09:59;5.30;;;2.22;;
62707;SDS011;48769;51.624;5.886;2022-08-24T16:12:28;5.93;;;2.00;;
62707;SDS011;48769;51.624;5.886;2022-08-24T16:14:56;5.60;;;2.17;;
62707;SDS011;48769;51.624;5.886;2022-08-24T16:22:57;4.28;;;2.00;;
62707;SDS011;48769;51.624;5.886;2022-08-24T16:25:27;7.13;;;1.92;;
62707;SDS011;48769;51.624;5.886;2022-08-24T16:28:03;5.35;;;2.00;;
62707;SDS011;48769;51.624;5.886;2022-08-24T16:30:56;4.30;;;1.80;;
62707;SDS011;48769;51.624;5.886;2022-08-24T16:38:23;2.63;;;1.83;;
62707;SDS011;48769;51.624;5.886;2022-08-24T16:40:49;5.47;;;2.03;;
62707;SDS011;48769;51.624;5.886;2022-08-24T16:43:28;2.85;;;1.92;;
62707;SDS011;48769;51.624;5.886;2022-08-24T16:45:55;7.97;;;2.35;;
62707;SDS011;48769;51.624;5.886;2022-08-24T16:48:21;6.45;;;1.90;;
62707;SDS011;48769;51.624;5.886;2022-08-24T16:50:47;8.50;;;2.45;;
62707;SDS011;48769;51.624;5.886;2022-08-24T16:53:13;6.57;;;1.75;;
62707;SDS011;48769;51.624;5.886;2022-08-24T16:55:39;7.97;;;1.90;;
62707;SDS011;48769;51.624;5.886;2022-08-24T16:58:04;7.80;;;2.17;;
62707;SDS011;48769;51.624;5.886;2022-08-24T17:00:30;7.30;;;1.85;;
62707;SDS011;48769;51.624;5.886;2022-08-24T17:02:55;7.05;;;1.92;;
62707;SDS011;48769;51.624;5.886;2022-08-24T17:05:21;2.65;;;1.70;;
62707;SDS011;48769;51.624;5.886;2022-08-24T17:07:47;3.40;;;2.03;;
62707;SDS011;48769;51.624;5.886;2022-08-24T17:10:15;5.07;;;1.88;;
62707;SDS011;48769;51.624;5.886;2022-08-24T17:12:42;3.70;;;1.80;;
62707;SDS011;48769;51.624;5.886;2022-08-24T17:15:08;4.65;;;1.92;;
62707;SDS011;48769;51.624;5.886;2022-08-24T17:17:35;7.72;;;2.25;;
62707;SDS011;48769;51.624;5.886;2022-08-24T17:20:02;3.08;;;2.25;;
62707;SDS011;48769;51.624;5.886;2022-08-24T17:22:31;4.03;;;1.98;;
62707;SDS011;48769;51.624;5.886;2022-08-24T17:24:57;3.75;;;1.90;;
62707;SDS011;48769;51.624;5.886;2022-08-24T17:27:25;4.93;;;2.20;;
62707;SDS011;48769;51.624;5.886;2022-08-24T17:29:54;5.13;;;2.38;;
62707;SDS011;48769;51.624;5.886;2022-08-24T17:32:20;4.60;;;2.15;;
62707;SDS011;48769;51.624;5.886;2022-08-24T17:34:45;3.78;;;2.00;;
62707;SDS011;48769;51.624;5.886;2022-08-24T17:37:11;7.78;;;2.60;;
62707;SDS011;48769;51.624;5.886;2022-08-24T17:39:36;5.55;;;2.30;;
62707;SDS011;48769;51.624;5.886;2022-08-24T17:42:01;5.80;;;2.17;;
62707;SDS011;48769;51.624;5.886;2022-08-24T17:44:28;6.13;;;1.73;;
62707;SDS011;48769;51.624;5.886;2022-08-24T17:46:57;5.40;;;2.25;;
62707;SDS011;48769;51.624;5.886;2022-08-24T17:49:25;3.30;;;1.77;;
62707;SDS011;48769;51.624;5.886;2022-08-24T17:51:51;8.35;;;2.60;;
62707;SDS011;48769;51.624;5.886;2022-08-24T17:54:19;5.45;;;1.98;;
62707;SDS011;48769;51.624;5.886;2022-08-24T17:56:45;4.28;;;2.13;;
62707;SDS011;48769;51.624;5.886;2022-08-24T17:59:11;8.27;;;2.35;;
62707;SDS011;48769;51.624;5.886;2022-08-24T18:01:43;7.18;;;2.10;;
62707;SDS011;48769;51.624;5.886;2022-08-24T18:04:09;5.07;;;2.17;;
62707;SDS011;48769;51.624;5.886;2022-08-24T18:06:35;5.95;;;2.38;;
62707;SDS011;48769;51.624;5.886;2022-08-24T18:09:02;6.63;;;2.40;;
62707;SDS011;48769;51.624;5.886;2022-08-24T18:11:30;8.98;;;2.40;;
62707;SDS011;48769;51.624;5.886;2022-08-24T18:13:55;5.22;;;2.20;;
62707;SDS011;48769;51.624;5.886;2022-08-24T18:16:21;5.20;;;2.33;;
62707;SDS011;48769;51.624;5.886;2022-08-24T18:18:49;6.38;;;2.30;;
62707;SDS011;48769;51.624;5.886;2022-08-24T18:21:16;7.43;;;2.80;;
62707;SDS011;48769;51.624;5.886;2022-08-24T18:23:43;4.35;;;2.40;;
62707;SDS011;48769;51.624;5.886;2022-08-24T18:26:09;8.68;;;3.33;;
62707;SDS011;48769;51.624;5.886;2022-08-24T18:28:35;11.07;;;2.83;;
62707;SDS011;48769;51.624;5.886;2022-08-24T18:31:01;9.65;;;3.45;;
62707;SDS011;48769;51.624;5.886;2022-08-24T18:33:26;12.43;;;3.15;;
62707;SDS011;48769;51.624;5.886;2022-08-24T18:35:52;10.93;;;3.00;;
62707;SDS011;48769;51.624;5.886;2022-08-24T18:38:17;10.43;;;3.05;;
62707;SDS011;48769;51.624;5.886;2022-08-24T18:40:43;14.63;;;3.10;;
62707;SDS011;48769;51.624;5.886;2022-08-24T18:43:09;9.57;;;2.85;;
62707;SDS011;48769;51.624;5.886;2022-08-24T18:45:36;16.20;;;4.47;;
62707;SDS011;48769;51.624;5.886;2022-08-24T18:48:02;16.50;;;5.30;;
62707;SDS011;48769;51.624;5.886;2022-08-24T18:50:29;14.00;;;5.22;;
62707;SDS011;48769;51.624;5.886;2022-08-24T18:52:56;18.17;;;5.55;;